Time;durP1;ratioP1;P1;durP2;ratioP2;P2;SDS_P1;SDS_P2;PMS_P1;PMS_P2;Temp;Humidity;BMP_temperature;BMP_pressure;BME280_temperature;BME280_humidity;BME280_pressure;Samples;Min_cycle;Max_cycle;Signal;HPM_P1;HPM_P2
2022/07/06 00:01:34;;;;;;;11.25;10.55;;;;;;;;;;5060132;28;20033;-61
2022/07/06 00:04:01;;;;;;;12.60;11.90;;;;;;;;;;5057705;28;20052;-61
2022/07/06 00:06:26;;;;;;;11.85;11.15;;;;;;;;;;5056995;28;20235;-61
2022/07/06 00:08:51;;;;;;;12.90;12.15;;;;;;;;;;5054989;28;20192;-62
2022/07/06 00:11:17;;;;;;;11.45;10.75;;;;;;;;;;5059279;28;20037;-61
2022/07/06 00:13:42;;;;;;;12.15;11.40;;;;;;;;;;5057040;28;20044;-61
2022/07/06 00:16:08;;;;;;;12.13;11.40;;;;;;;;;;5057437;28;20043;-61
2022/07/06 00:18:33;;;;;;;13.90;13.00;;;;;;;;;;5056229;28;20474;-61
2022/07/06 00:20:59;;;;;;;13.38;12.57;;;;;;;;;;5054428;28;20115;-61
2022/07/06 00:23:24;;;;;;;11.68;10.98;;;;;;;;;;5055660;28;20169;-61
2022/07/06 00:25:50;;;;;;;13.18;12.38;;;;;;;;;;5058775;28;20059;-61
2022/07/06 00:28:15;;;;;;;14.00;13.20;;;;;;;;;;5058096;28;20021;-63
2022/07/06 00:30:41;;;;;;;12.60;11.85;;;;;;;;;;5057063;28;20037;-61
2022/07/06 00:33:06;;;;;;;11.93;11.23;;;;;;;;;;5054611;28;20331;-61
2022/07/06 00:35:32;;;;;;;11.23;10.52;;;;;;;;;;5056522;28;20041;-60
2022/07/06 00:37:58;;;;;;;11.43;10.73;;;;;;;;;;5055375;28;20112;-61
2022/07/06 00:40:23;;;;;;;10.85;10.15;;;;;;;;;;5056228;28;20037;-60
2022/07/06 00:42:49;;;;;;;11.35;10.65;;;;;;;;;;5057721;28;20021;-60
2022/07/06 00:45:16;;;;;;;11.30;10.60;;;;;;;;;;5058102;28;20020;-60
2022/07/06 00:47:42;;;;;;;11.32;10.63;;;;;;;;;;5056601;28;20063;-60
2022/07/06 00:50:22;;;;;;;11.73;11.02;;;;;;;;;;5054548;28;20130;-60
2022/07/06 00:52:50;;;;;;;10.80;10.10;;;;;;;;;;5057204;28;20067;-60
2022/07/06 00:55:21;;;;;;;10.75;10.07;;;;;;;;;;5056947;28;20028;-60
2022/07/06 00:57:47;;;;;;;11.32;10.63;;;;;;;;;;5055156;28;20037;-60
2022/07/06 01:00:14;;;;;;;10.77;10.10;;;;;;;;;;5056067;28;20266;-61
2022/07/06 01:02:40;;;;;;;12.18;11.27;;;;;;;;;;5056464;28;20463;-60
2022/07/06 01:05:07;;;;;;;10.02;9.43;;;;;;;;;;5056387;28;20029;-60
2022/07/06 01:07:33;;;;;;;10.38;9.75;;;;;;;;;;5055632;28;20074;-60
2022/07/06 01:09:59;;;;;;;10.15;9.48;;;;;;;;;;5056591;28;20032;-61
2022/07/06 01:12:25;;;;;;;10.32;9.73;;;;;;;;;;5056080;28;20032;-60
2022/07/06 01:14:50;;;;;;;10.38;9.73;;;;;;;;;;5057365;28;20466;-64
2022/07/06 01:17:17;;;;;;;11.32;10.63;;;;;;;;;;5054888;28;20033;-64
2022/07/06 01:19:42;;;;;;;13.30;12.50;;;;;;;;;;5057678;28;20055;-64
2022/07/06 01:22:08;;;;;;;10.57;9.88;;;;;;;;;;5055245;28;20036;-65
2022/07/06 01:24:37;;;;;;;10.90;10.25;;;;;;;;;;5057899;28;20058;-64
2022/07/06 01:27:06;;;;;;;14.32;13.50;;;;;;;;;;5057277;28;20032;-64
2022/07/06 01:29:32;;;;;;;11.73;11.02;;;;;;;;;;5056977;28;20244;-65
2022/07/06 01:31:58;;;;;;;11.02;10.32;;;;;;;;;;5054313;28;20704;-65
2022/07/06 01:34:23;;;;;;;12.68;11.93;;;;;;;;;;5058059;28;20047;-65
2022/07/06 01:36:48;;;;;;;10.82;10.13;;;;;;;;;;5054440;28;20040;-65
2022/07/06 01:39:14;;;;;;;11.38;10.68;;;;;;;;;;5056765;28;20028;-64
2022/07/06 01:41:40;;;;;;;10.70;10.00;;;;;;;;;;5055487;28;20043;-64
2022/07/06 01:44:05;;;;;;;11.32;10.63;;;;;;;;;;5053221;28;20032;-65
2022/07/06 01:46:31;;;;;;;11.00;10.30;;;;;;;;;;5056163;28;20036;-65
2022/07/06 01:48:56;;;;;;;10.30;9.70;;;;;;;;;;5054978;28;20297;-65
2022/07/06 01:51:23;;;;;;;10.50;9.82;;;;;;;;;;5054099;28;20028;-65
2022/07/06 01:53:49;;;;;;;11.38;10.68;;;;;;;;;;5054276;28;20025;-65
2022/07/06 01:56:14;;;;;;;9.52;8.93;;;;;;;;;;5055086;28;20153;-65
2022/07/06 01:58:40;;;;;;;10.32;9.73;;;;;;;;;;5057033;28;20115;-65
2022/07/06 02:01:09;;;;;;;9.75;9.15;;;;;;;;;;5054277;28;20461;-65
2022/07/06 02:03:34;;;;;;;9.88;9.27;;;;;;;;;;5056534;28;20037;-65
2022/07/06 02:06:00;;;;;;;8.95;8.35;;;;;;;;;;5056641;28;20037;-65
2022/07/06 02:08:25;;;;;;;8.23;7.72;;;;;;;;;;5055199;28;20100;-65
2022/07/06 02:10:51;;;;;;;9.70;9.10;;;;;;;;;;5054996;28;20038;-65
2022/07/06 02:13:16;;;;;;;8.18;7.68;;;;;;;;;;5054959;28;20028;-65
2022/07/06 02:15:42;;;;;;;8.10;7.60;;;;;;;;;;5054965;28;20033;-65
2022/07/06 02:18:07;;;;;;;8.13;7.63;;;;;;;;;;5056243;28;20071;-65
2022/07/06 02:20:32;;;;;;;7.82;7.32;;;;;;;;;;5052864;28;20366;-66
2022/07/06 02:22:58;;;;;;;7.20;6.70;;;;;;;;;;5055699;28;20055;-65
2022/07/06 02:25:23;;;;;;;7.45;6.95;;;;;;;;;;5052909;28;20040;-64
2022/07/06 02:27:48;;;;;;;7.45;6.95;;;;;;;;;;5055164;28;20024;-64
2022/07/06 02:30:14;;;;;;;6.55;6.15;;;;;;;;;;5054721;28;20036;-64
2022/07/06 02:32:39;;;;;;;6.70;6.22;;;;;;;;;;5052800;28;20036;-64
2022/07/06 02:35:05;;;;;;;7.30;6.80;;;;;;;;;;5061980;28;20037;-64
2022/07/06 02:37:30;;;;;;;7.30;6.80;;;;;;;;;;5057369;28;20020;-64
2022/07/06 02:39:55;;;;;;;7.85;7.35;;;;;;;;;;5052824;28;20032;-64
2022/07/06 02:42:21;;;;;;;6.82;6.20;;;;;;;;;;5054853;28;20028;-64
2022/07/06 02:44:46;;;;;;;7.25;6.75;;;;;;;;;;5053731;28;20035;-64
2022/07/06 02:47:11;;;;;;;6.97;6.47;;;;;;;;;;5054940;28;20033;-64
2022/07/06 02:49:36;;;;;;;7.07;6.57;;;;;;;;;;5054474;28;20037;-63
2022/07/06 02:52:02;;;;;;;8.05;7.55;;;;;;;;;;5051976;28;20040;-64
2022/07/06 02:54:27;;;;;;;7.75;7.25;;;;;;;;;;5056184;28;20106;-64
2022/07/06 02:56:53;;;;;;;6.80;6.30;;;;;;;;;;5054243;28;20025;-64
2022/07/06 02:59:19;;;;;;;7.18;6.68;;;;;;;;;;5053257;28;20091;-64
2022/07/06 03:01:45;;;;;;;6.50;6.07;;;;;;;;;;5051497;28;20076;-64
2022/07/06 03:04:10;;;;;;;6.55;6.10;;;;;;;;;;5054531;28;20044;-64
2022/07/06 03:06:36;;;;;;;6.90;6.40;;;;;;;;;;5056154;28;20362;-64
2022/07/06 03:09:01;;;;;;;6.40;6.00;;;;;;;;;;5051703;28;20039;-63
2022/07/06 03:11:27;;;;;;;7.13;6.63;;;;;;;;;;5059770;28;20043;-64
2022/07/06 03:13:52;;;;;;;6.53;6.05;;;;;;;;;;5055903;28;20064;-64
2022/07/06 03:16:17;;;;;;;7.15;6.65;;;;;;;;;;5054804;28;20029;-64
2022/07/06 03:18:43;;;;;;;7.43;6.93;;;;;;;;;;5056440;28;20052;-64
2022/07/06 03:21:08;;;;;;;7.32;6.82;;;;;;;;;;5056937;28;20466;-63
2022/07/06 03:23:34;;;;;;;7.15;6.68;;;;;;;;;;5056590;28;20043;-63
2022/07/06 03:25:59;;;;;;;7.25;6.75;;;;;;;;;;5053686;28;20572;-64
2022/07/06 03:28:25;;;;;;;7.40;6.90;;;;;;;;;;5052903;28;20029;-64
2022/07/06 03:30:50;;;;;;;7.65;7.15;;;;;;;;;;5055659;28;20028;-64
2022/07/06 03:33:15;;;;;;;7.95;7.40;;;;;;;;;;5055257;28;20328;-63
2022/07/06 03:35:41;;;;;;;8.52;8.02;;;;;;;;;;5054444;28;20454;-61
2022/07/06 03:38:06;;;;;;;7.93;7.43;;;;;;;;;;5053373;28;20064;-61
2022/07/06 03:40:31;;;;;;;7.50;7.00;;;;;;;;;;5052151;28;20132;-60
2022/07/06 03:42:57;;;;;;;8.02;7.32;;;;;;;;;;5053959;28;20037;-60
2022/07/06 03:45:22;;;;;;;6.88;6.38;;;;;;;;;;5053164;28;20028;-64
2022/07/06 03:47:47;;;;;;;6.97;6.47;;;;;;;;;;5050594;28;20033;-59
2022/07/06 03:50:13;;;;;;;6.95;6.45;;;;;;;;;;5052348;28;20359;-60
2022/07/06 03:52:41;;;;;;;7.40;6.90;;;;;;;;;;5054030;28;20064;-60
2022/07/06 03:55:09;;;;;;;7.25;6.75;;;;;;;;;;5055668;28;20108;-60
2022/07/06 03:57:34;;;;;;;7.15;6.60;;;;;;;;;;5057715;28;20051;-60
2022/07/06 03:59:59;;;;;;;7.22;6.72;;;;;;;;;;5059704;28;20418;-60
2022/07/06 04:02:25;;;;;;;7.18;6.68;;;;;;;;;;5057583;28;20475;-60
2022/07/06 04:04:50;;;;;;;7.65;7.15;;;;;;;;;;5055017;28;20029;-64
2022/07/06 04:07:15;;;;;;;7.00;6.50;;;;;;;;;;5055915;28;20415;-64
2022/07/06 04:09:41;;;;;;;6.85;6.35;;;;;;;;;;5058354;28;20634;-64
2022/07/06 04:12:06;;;;;;;7.35;6.85;;;;;;;;;;5059703;28;20158;-64
2022/07/06 04:14:32;;;;;;;6.75;6.30;;;;;;;;;;5054493;28;20051;-64
2022/07/06 04:16:57;;;;;;;7.57;7.07;;;;;;;;;;5056303;28;20025;-64
2022/07/06 04:19:22;;;;;;;7.30;6.72;;;;;;;;;;5054708;28;20106;-64
2022/07/06 04:21:48;;;;;;;6.75;6.25;;;;;;;;;;5057722;28;20039;-64
2022/07/06 04:24:13;;;;;;;7.20;6.70;;;;;;;;;;5054371;28;20527;-63
2022/07/06 04:26:38;;;;;;;7.35;6.85;;;;;;;;;;5058308;28;20032;-64
2022/07/06 04:29:04;;;;;;;6.45;5.95;;;;;;;;;;5055132;28;20036;-64
2022/07/06 04:31:29;;;;;;;6.82;6.32;;;;;;;;;;5064901;28;20016;-64
2022/07/06 04:33:54;;;;;;;6.57;6.07;;;;;;;;;;5058918;28;20115;-64
2022/07/06 04:36:20;;;;;;;6.60;6.10;;;;;;;;;;5055687;28;20122;-63
2022/07/06 04:38:47;;;;;;;6.25;5.85;;;;;;;;;;5057465;28;20021;-64
2022/07/06 04:41:12;;;;;;;6.07;5.68;;;;;;;;;;5055561;28;20043;-64
2022/07/06 04:43:38;;;;;;;5.90;5.50;;;;;;;;;;5060620;28;20037;-64
2022/07/06 04:46:05;;;;;;;6.53;6.03;;;;;;;;;;5057720;28;20108;-63
2022/07/06 04:48:32;;;;;;;6.30;5.90;;;;;;;;;;5056410;28;20133;-63
2022/07/06 04:50:58;;;;;;;6.35;5.93;;;;;;;;;;5055914;28;20732;-63
2022/07/06 04:53:23;;;;;;;6.40;5.90;;;;;;;;;;5056047;28;20119;-63
2022/07/06 04:55:48;;;;;;;6.70;6.20;;;;;;;;;;5057062;28;20182;-64
2022/07/06 04:58:14;;;;;;;6.82;6.35;;;;;;;;;;5057035;28;20024;-64
2022/07/06 05:00:39;;;;;;;6.88;6.38;;;;;;;;;;5056668;28;20602;-63
2022/07/06 05:03:04;;;;;;;6.57;6.10;;;;;;;;;;5057024;28;20021;-63
2022/07/06 05:05:30;;;;;;;6.10;5.70;;;;;;;;;;5057544;28;20059;-64
2022/07/06 05:07:55;;;;;;;6.53;6.03;;;;;;;;;;5056165;28;20025;-63
2022/07/06 05:10:21;;;;;;;8.38;7.78;;;;;;;;;;5054334;28;20170;-63
2022/07/06 05:12:46;;;;;;;8.65;6.97;;;;;;;;;;5056866;28;20106;-64
2022/07/06 05:15:12;;;;;;;6.88;6.38;;;;;;;;;;5052005;28;20047;-64
2022/07/06 05:17:37;;;;;;;7.53;7.03;;;;;;;;;;5055679;28;20426;-64
2022/07/06 05:20:04;;;;;;;7.63;7.13;;;;;;;;;;5055231;28;20119;-64
2022/07/06 05:22:29;;;;;;;6.40;6.00;;;;;;;;;;5057816;28;20028;-64
2022/07/06 05:24:54;;;;;;;6.57;6.15;;;;;;;;;;5056117;28;20421;-64
2022/07/06 05:27:20;;;;;;;6.93;6.43;;;;;;;;;;5057383;28;20458;-64
2022/07/06 05:29:45;;;;;;;6.75;6.25;;;;;;;;;;5054258;28;20523;-63
2022/07/06 05:32:10;;;;;;;6.70;6.20;;;;;;;;;;5052287;28;20083;-64
2022/07/06 05:34:37;;;;;;;7.50;6.95;;;;;;;;;;5054892;28;20028;-64
2022/07/06 05:37:03;;;;;;;7.18;6.68;;;;;;;;;;5054188;28;20056;-64
2022/07/06 05:39:28;;;;;;;7.35;6.85;;;;;;;;;;5052741;28;20068;-64
2022/07/06 05:41:54;;;;;;;7.57;7.07;;;;;;;;;;5056812;28;20119;-64
2022/07/06 05:44:19;;;;;;;7.30;6.80;;;;;;;;;;5054199;28;20454;-59
2022/07/06 05:46:44;;;;;;;7.95;7.45;;;;;;;;;;5055517;28;20029;-60
2022/07/06 05:51:53;;;;;;;7.00;6.53;;;;;;;;;;5052985;28;20611;-59
2022/07/06 05:54:19;;;;;;;7.20;6.70;;;;;;;;;;5057493;28;20028;-59
2022/07/06 05:56:44;;;;;;;7.65;7.15;;;;;;;;;;5055232;28;20336;-59
2022/07/06 05:59:09;;;;;;;7.90;7.40;;;;;;;;;;5056147;28;20058;-59
2022/07/06 06:01:35;;;;;;;7.80;7.30;;;;;;;;;;5052903;28;20048;-59
2022/07/06 06:04:00;;;;;;;7.82;7.32;;;;;;;;;;5058833;28;20078;-59
2022/07/06 06:06:26;;;;;;;7.88;7.38;;;;;;;;;;5054913;28;20043;-59
2022/07/06 06:08:51;;;;;;;7.05;6.55;;;;;;;;;;5056606;28;20043;-57
2022/07/06 06:11:17;;;;;;;7.60;7.10;;;;;;;;;;5055981;28;20032;-59
2022/07/06 06:13:43;;;;;;;7.40;6.90;;;;;;;;;;5056301;28;20041;-59
2022/07/06 06:16:08;;;;;;;7.85;7.32;;;;;;;;;;5053596;28;20089;-59
2022/07/06 06:18:33;;;;;;;7.88;7.38;;;;;;;;;;5054927;28;20029;-59
2022/07/06 06:20:59;;;;;;;7.43;6.93;;;;;;;;;;5056173;28;20524;-59
2022/07/06 06:23:24;;;;;;;7.88;7.38;;;;;;;;;;5052277;28;20041;-59
2022/07/06 06:25:50;;;;;;;8.00;7.40;;;;;;;;;;5057264;28;20489;-59
2022/07/06 06:28:15;;;;;;;7.85;7.13;;;;;;;;;;5055033;28;20414;-59
2022/07/06 06:30:40;;;;;;;7.70;7.20;;;;;;;;;;5052863;28;20422;-59
2022/07/06 06:33:14;;;;;;;8.25;7.75;;;;;;;;;;5053307;28;20024;-59
2022/07/06 06:35:45;;;;;;;8.20;7.70;;;;;;;;;;5053904;28;20047;-59
2022/07/06 06:38:10;;;;;;;7.88;7.22;;;;;;;;;;5053391;28;20187;-59
2022/07/06 06:40:36;;;;;;;7.95;7.45;;;;;;;;;;5053176;28;20034;-59
2022/07/06 06:43:01;;;;;;;8.52;7.93;;;;;;;;;;5055722;28;20047;-59
2022/07/06 06:45:27;;;;;;;8.77;8.18;;;;;;;;;;5052007;28;20032;-59
2022/07/06 06:47:52;;;;;;;8.80;8.20;;;;;;;;;;5050032;28;20040;-60
2022/07/06 06:50:18;;;;;;;8.25;7.75;;;;;;;;;;5053678;28;20033;-59
2022/07/06 06:52:43;;;;;;;9.23;8.63;;;;;;;;;;5052468;28;20017;-59
2022/07/06 06:55:09;;;;;;;8.93;8.32;;;;;;;;;;5055119;28;20028;-58
2022/07/06 06:57:34;;;;;;;9.45;8.85;;;;;;;;;;5055028;28;20031;-59
2022/07/06 07:00:00;;;;;;;8.98;8.38;;;;;;;;;;5052993;28;20343;-59
2022/07/06 07:02:25;;;;;;;9.90;9.20;;;;;;;;;;5055813;28;20033;-59
2022/07/06 07:04:50;;;;;;;9.27;8.65;;;;;;;;;;5052895;28;20028;-59
2022/07/06 07:07:16;;;;;;;9.60;9.00;;;;;;;;;;5053799;28;20455;-59
2022/07/06 07:09:41;;;;;;;9.07;8.45;;;;;;;;;;5054598;28;20343;-59
2022/07/06 07:12:07;;;;;;;10.73;10.00;;;;;;;;;;5056083;28;20276;-59
2022/07/06 07:14:32;;;;;;;9.73;9.13;;;;;;;;;;5057681;28;20036;-59
2022/07/06 07:16:58;;;;;;;9.40;8.80;;;;;;;;;;5052868;28;20071;-59
2022/07/06 07:19:23;;;;;;;9.77;9.18;;;;;;;;;;5055121;28;20111;-59
2022/07/06 07:21:49;;;;;;;10.75;10.05;;;;;;;;;;5058083;28;20070;-59
2022/07/06 07:24:14;;;;;;;10.43;9.77;;;;;;;;;;5054160;28;20116;-59
2022/07/06 07:26:39;;;;;;;10.43;9.80;;;;;;;;;;5052381;28;20110;-59
2022/07/06 07:29:05;;;;;;;9.63;9.02;;;;;;;;;;5054673;28;20136;-59
2022/07/06 07:31:30;;;;;;;11.60;10.80;;;;;;;;;;5058846;28;20033;-59
2022/07/06 07:33:56;;;;;;;10.63;9.95;;;;;;;;;;5057112;28;20083;-59
2022/07/06 07:36:23;;;;;;;11.45;10.75;;;;;;;;;;5057478;28;20025;-59
2022/07/06 07:38:49;;;;;;;11.30;10.60;;;;;;;;;;5055088;28;20347;-59
2022/07/06 07:41:16;;;;;;;12.73;11.93;;;;;;;;;;5059560;28;20462;-59
2022/07/06 07:43:42;;;;;;;12.60;11.82;;;;;;;;;;5055826;28;20081;-59
2022/07/06 07:46:07;;;;;;;12.48;11.77;;;;;;;;;;5059036;28;20040;-60
2022/07/06 07:48:33;;;;;;;11.95;11.25;;;;;;;;;;5056193;28;20175;-60
2022/07/06 07:50:58;;;;;;;12.77;12.00;;;;;;;;;;5055651;28;20025;-59
2022/07/06 07:53:23;;;;;;;13.13;12.32;;;;;;;;;;5060334;28;20035;-60
2022/07/06 07:55:49;;;;;;;13.20;12.40;;;;;;;;;;5059018;28;20061;-59
2022/07/06 07:58:14;;;;;;;13.82;13.02;;;;;;;;;;5056981;28;20036;-60
2022/07/06 08:00:39;;;;;;;12.55;11.82;;;;;;;;;;5055222;28;20047;-60
2022/07/06 08:03:05;;;;;;;14.80;13.90;;;;;;;;;;5057422;28;20111;-59
2022/07/06 08:05:31;;;;;;;13.43;12.65;;;;;;;;;;5058459;28;20437;-60
2022/07/06 08:07:56;;;;;;;13.93;13.13;;;;;;;;;;5057928;28;20108;-60
2022/07/06 08:10:22;;;;;;;16.15;15.25;;;;;;;;;;5057890;28;20040;-60
2022/07/06 08:12:47;;;;;;;18.75;17.75;;;;;;;;;;5059619;28;20488;-59
2022/07/06 08:15:12;;;;;;;15.80;14.90;;;;;;;;;;5056015;28;20029;-59
2022/07/06 08:17:39;;;;;;;17.95;16.83;;;;;;;;;;5056006;28;20040;-59
2022/07/06 08:20:05;;;;;;;19.08;17.98;;;;;;;;;;5058345;28;20073;-60
2022/07/06 08:22:31;;;;;;;19.65;18.58;;;;;;;;;;5057988;28;20035;-60
2022/07/06 08:24:57;;;;;;;21.88;20.55;;;;;;;;;;5057330;28;20036;-60
2022/07/06 08:27:23;;;;;;;21.38;19.98;;;;;;;;;;5056914;28;20028;-60
2022/07/06 08:29:49;;;;;;;22.75;21.55;;;;;;;;;;5059613;28;20375;-60
2022/07/06 08:32:14;;;;;;;21.23;20.10;;;;;;;;;;5057922;28;20056;-60
2022/07/06 08:34:40;;;;;;;23.38;22.13;;;;;;;;;;5057115;28;20035;-60
2022/07/06 08:37:05;;;;;;;23.88;22.58;;;;;;;;;;5055757;28;20021;-60
2022/07/06 08:39:31;;;;;;;21.13;19.95;;;;;;;;;;5055440;28;20467;-60
2022/07/06 08:41:58;;;;;;;21.08;19.92;;;;;;;;;;5054611;28;20391;-59
2022/07/06 08:44:25;;;;;;;22.20;21.00;;;;;;;;;;5059018;28;20029;-60
2022/07/06 08:46:54;;;;;;;19.88;18.77;;;;;;;;;;5057333;28;20028;-59
2022/07/06 08:49:19;;;;;;;21.13;19.98;;;;;;;;;;5054301;28;20032;-60
2022/07/06 08:51:45;;;;;;;21.02;19.83;;;;;;;;;;5059002;28;20184;-60
2022/07/06 08:54:11;;;;;;;22.05;20.85;;;;;;;;;;5057254;28;20378;-60
2022/07/06 08:56:37;;;;;;;22.45;21.25;;;;;;;;;;5053914;28;20048;-60
2022/07/06 08:59:03;;;;;;;21.00;19.90;;;;;;;;;;5055363;28;20055;-60
2022/07/06 09:01:29;;;;;;;19.20;18.10;;;;;;;;;;5052939;28;20036;-60
2022/07/06 09:03:55;;;;;;;20.50;19.38;;;;;;;;;;5055560;28;20025;-60
2022/07/06 09:06:25;;;;;;;20.73;19.52;;;;;;;;;;5055351;28;20025;-60
2022/07/06 09:08:54;;;;;;;22.77;21.57;;;;;;;;;;5054244;28;20450;-60
2022/07/06 09:11:24;;;;;;;22.83;21.58;;;;;;;;;;5057064;28;20266;-60
2022/07/06 09:13:52;;;;;;;24.05;22.75;;;;;;;;;;5053844;28;20075;-60
2022/07/06 09:16:25;;;;;;;23.77;22.50;;;;;;;;;;5057256;28;20040;-60
2022/07/06 09:18:51;;;;;;;24.45;23.15;;;;;;;;;;5055554;28;20372;-59
2022/07/06 09:21:25;;;;;;;24.55;23.25;;;;;;;;;;5056412;28;20021;-59
2022/07/06 09:23:55;;;;;;;21.25;20.13;;;;;;;;;;5056383;28;20055;-60
2022/07/06 09:26:20;;;;;;;24.58;23.15;;;;;;;;;;5053846;28;20021;-59
2022/07/06 09:28:45;;;;;;;27.52;26.10;;;;;;;;;;5057249;28;20470;-64
2022/07/06 09:31:11;;;;;;;27.25;25.83;;;;;;;;;;5055336;28;20104;-65
2022/07/06 09:33:37;;;;;;;30.60;29.00;;;;;;;;;;5057500;28;20032;-65
2022/07/06 09:36:05;;;;;;;26.98;25.48;;;;;;;;;;5054064;28;20029;-65
2022/07/06 09:38:31;;;;;;;38.00;36.05;;;;;;;;;;5056424;28;20219;-65
2022/07/06 09:40:56;;;;;;;45.33;42.85;;;;;;;;;;5056838;28;20114;-64
2022/07/06 09:43:23;;;;;;;42.45;40.28;;;;;;;;;;5055014;28;20137;-64
2022/07/06 09:45:50;;;;;;;44.90;42.60;;;;;;;;;;5055767;28;20503;-63
2022/07/06 09:48:22;;;;;;;28.33;26.83;;;;;;;;;;5053991;28;20457;-64
2022/07/06 09:50:53;;;;;;;44.80;42.53;;;;;;;;;;5050599;28;20425;-64
2022/07/06 09:53:20;;;;;;;32.63;30.88;;;;;;;;;;5054292;28;20048;-65
2022/07/06 09:55:47;;;;;;;43.10;40.90;;;;;;;;;;5053703;28;20044;-65
2022/07/06 09:58:14;;;;;;;52.42;49.83;;;;;;;;;;5059233;28;20029;-64
2022/07/06 10:00:44;;;;;;;53.45;50.75;;;;;;;;;;5056052;28;20041;-65
2022/07/06 10:03:10;;;;;;;51.53;48.93;;;;;;;;;;5052240;28;20075;-66
2022/07/06 10:05:37;;;;;;;52.00;49.33;;;;;;;;;;5056904;28;20505;-64
2022/07/06 10:08:05;;;;;;;52.58;49.90;;;;;;;;;;5055620;28;20044;-65
2022/07/06 10:10:32;;;;;;;54.33;51.55;;;;;;;;;;5053745;28;20603;-63
2022/07/06 10:12:59;;;;;;;52.85;49.95;;;;;;;;;;5053768;28;20047;-63
2022/07/06 10:15:26;;;;;;;55.63;52.83;;;;;;;;;;5053849;28;20246;-64
2022/07/06 10:17:53;;;;;;;35.92;34.08;;;;;;;;;;5056637;28;20423;-64
2022/07/06 10:20:19;;;;;;;28.38;26.88;;;;;;;;;;5053780;28;20033;-65
2022/07/06 10:22:47;;;;;;;38.95;36.95;;;;;;;;;;5054513;28;20052;-65
2022/07/06 10:25:15;;;;;;;32.15;30.45;;;;;;;;;;5057682;28;20081;-63
2022/07/06 10:27:42;;;;;;;24.80;23.50;;;;;;;;;;5054528;28;20032;-65
2022/07/06 10:30:08;;;;;;;30.52;28.90;;;;;;;;;;5056436;28;20490;-64
2022/07/06 10:32:35;;;;;;;29.75;28.17;;;;;;;;;;5052871;28;20080;-64
2022/07/06 10:35:01;;;;;;;22.77;21.58;;;;;;;;;;5052023;28;20133;-64
2022/07/06 10:37:27;;;;;;;27.88;26.42;;;;;;;;;;5056648;28;20107;-63
2022/07/06 10:42:45;;;;;;;23.08;21.83;;;;;;;;;;5054660;28;20037;-65
2022/07/06 10:45:13;;;;;;;24.20;22.90;;;;;;;;;;5053906;28;20144;-64
2022/07/06 10:47:40;;;;;;;21.45;20.27;;;;;;;;;;5054846;28;20585;-64
2022/07/06 10:50:06;;;;;;;23.58;22.27;;;;;;;;;;5052430;28;20028;-64
2022/07/06 10:52:51;;;;;;;23.92;22.63;;;;;;;;;;5053489;28;20510;-64
2022/07/06 10:55:36;;;;;;;23.52;22.30;;;;;;;;;;5053476;28;20087;-64
2022/07/06 10:58:02;;;;;;;23.38;22.13;;;;;;;;;;5052964;28;20091;-64
2022/07/06 11:00:57;;;;;;;24.25;22.95;;;;;;;;;;5053938;28;20056;-64
2022/07/06 11:03:39;;;;;;;25.85;24.50;;;;;;;;;;5048118;28;20044;-65
2022/07/06 11:06:22;;;;;;;26.27;24.88;;;;;;;;;;5058532;28;20020;-63
2022/07/06 11:09:49;;;;;;;21.98;20.77;;;;;;;;;;5059611;28;20108;-63
2022/07/06 11:13:35;;;;;;;22.23;21.02;;;;;;;;;;4919610;29;20747;-63
2022/07/06 11:21:47;;;;;;;21.02;19.88;;;;;;;;;;4894802;29;20032;-64
2022/07/06 11:29:02;;;;;;;;;;;;;;;;;;;;;
2022/07/06 13:08:04;;;;;;;;;;;;;;;;;;;;;
2022/07/06 13:16:28;;;;;;;;;;;;;;;;;;;;;
2022/07/06 13:20:38;;;;;;;;;;;;;;;;;;;;;
2022/07/06 14:17:54;;;;;;;79.53;75.60;;;;;;;;;;4924347;29;20046;-62
2022/07/06 14:21:17;;;;;;;85.97;81.72;;;;;;;;;;4934150;28;20062;-61
2022/07/06 14:25:06;;;;;;;77.32;73.47;;;;;;;;;;4957478;28;20085;-61
2022/07/06 14:32:24;;;;;;;;;;;;;;;;;;;;;
2022/07/06 14:36:11;;;;;;;;;;;;;;;;;;;;;
2022/07/06 14:39:50;;;;;;;63.03;59.90;;;;;;;;;;4854143;29;20052;-62
2022/07/06 15:02:08;;;;;;;;;;;;;;;;;;;;;
2022/07/06 15:16:57;;;;;;;68.57;65.15;;;;;;;;;;4827478;29;20114;-61
2022/07/06 16:52:05;;;;;;;;;;;;;;;;;;;;;
2022/07/06 16:59:58;;;;;;;;;;;;;;;;;;;;;
2022/07/06 17:26:53;;;;;;;41.38;39.25;;;;;;;;;;4792274;29;20386;-63
2022/07/06 17:45:41;;;;;;;45.05;42.75;;;;;;;;;;4848559;29;20052;-62
2022/07/06 18:15:56;;;;;;;;;;;;;;;;;;;;;
2022/07/06 18:38:26;;;;;;;;;;;;;;;;;;;;;
2022/07/06 18:41:52;;;;;;;21.63;20.42;;;;;;;;;;4983813;28;20254;-61
2022/07/06 19:04:45;;;;;;;16.75;15.80;;;;;;;;;;5030730;28;20144;-61
2022/07/06 19:08:29;;;;;;;;;;;;;;;;;;;;;
2022/07/06 19:16:55;;;;;;;17.33;16.23;;;;;;;;;;5041634;28;20044;-62
2022/07/06 19:45:16;;;;;;;11.68;10.98;;;;;;;;;;5036029;28;20048;-62
2022/07/06 19:56:36;;;;;;;12.27;11.50;;;;;;;;;;4977551;28;20361;-63
2022/07/06 19:59:23;;;;;;;11.55;10.85;;;;;;;;;;4988118;28;20040;-63
2022/07/06 20:01:49;;;;;;;12.13;11.43;;;;;;;;;;5045053;28;20419;-63
2022/07/06 20:04:14;;;;;;;11.75;11.05;;;;;;;;;;5044452;28;20025;-64
2022/07/06 20:06:40;;;;;;;11.18;10.48;;;;;;;;;;5046800;28;20147;-64
2022/07/06 20:09:06;;;;;;;10.82;10.18;;;;;;;;;;5045251;28;20175;-62
2022/07/06 20:11:32;;;;;;;12.43;11.70;;;;;;;;;;5044506;28;20033;-64
2022/07/06 20:13:59;;;;;;;12.50;11.75;;;;;;;;;;5045068;28;20035;-63
2022/07/06 20:16:24;;;;;;;10.90;10.23;;;;;;;;;;5044711;28;20024;-63
2022/07/06 20:18:50;;;;;;;10.70;10.07;;;;;;;;;;5045444;28;20422;-63
2022/07/06 20:21:15;;;;;;;11.95;11.25;;;;;;;;;;5044180;28;20047;-64
2022/07/06 20:23:41;;;;;;;12.40;11.70;;;;;;;;;;5044886;28;20017;-65
2022/07/06 20:26:06;;;;;;;10.82;10.13;;;;;;;;;;5045892;28;20057;-62
2022/07/06 20:28:33;;;;;;;12.00;11.30;;;;;;;;;;5042922;28;20102;-63
2022/07/06 20:30:58;;;;;;;11.55;10.85;;;;;;;;;;5043908;28;20082;-63
2022/07/06 20:33:24;;;;;;;11.55;10.85;;;;;;;;;;5044963;28;20382;-64
2022/07/06 20:35:49;;;;;;;10.70;10.02;;;;;;;;;;5044414;28;20483;-63
2022/07/06 20:38:16;;;;;;;11.48;10.77;;;;;;;;;;5045303;28;20040;-64
2022/07/06 20:40:41;;;;;;;11.40;10.70;;;;;;;;;;5044239;28;20024;-64
2022/07/06 20:43:07;;;;;;;10.18;9.57;;;;;;;;;;5044989;28;20044;-63
2022/07/06 20:45:32;;;;;;;10.02;9.43;;;;;;;;;;5044361;28;20044;-63
2022/07/06 20:47:57;;;;;;;10.65;10.02;;;;;;;;;;5044113;28;20110;-63
2022/07/06 20:50:23;;;;;;;10.40;9.75;;;;;;;;;;5044544;28;20029;-63
2022/07/06 20:52:48;;;;;;;10.68;9.98;;;;;;;;;;5042856;28;20040;-63
2022/07/06 20:55:13;;;;;;;10.30;9.70;;;;;;;;;;5042999;28;20036;-63
2022/07/06 20:57:39;;;;;;;9.93;9.32;;;;;;;;;;5044147;28;20176;-63
2022/07/06 21:00:05;;;;;;;10.27;9.68;;;;;;;;;;5044308;28;20025;-63
2022/07/06 21:02:31;;;;;;;11.00;10.30;;;;;;;;;;5043519;28;20348;-63
2022/07/06 21:04:56;;;;;;;10.07;9.48;;;;;;;;;;5044106;28;20115;-63
2022/07/06 21:07:21;;;;;;;10.50;9.90;;;;;;;;;;5042856;28;20036;-63
2022/07/06 21:09:47;;;;;;;11.55;10.85;;;;;;;;;;5044613;28;20043;-64
2022/07/06 21:12:12;;;;;;;10.73;10.07;;;;;;;;;;5043642;28;20773;-64
2022/07/06 21:14:37;;;;;;;9.77;9.07;;;;;;;;;;5044561;28;20060;-63
2022/07/06 21:17:03;;;;;;;11.02;10.32;;;;;;;;;;5041331;28;20803;-63
2022/07/06 21:19:28;;;;;;;9.32;8.63;;;;;;;;;;5044437;28;20044;-64
2022/07/06 21:21:54;;;;;;;9.38;8.77;;;;;;;;;;5044780;28;20029;-64
2022/07/06 21:24:19;;;;;;;11.07;10.38;;;;;;;;;;5043086;28;20091;-64
2022/07/06 21:26:45;;;;;;;9.50;8.90;;;;;;;;;;5042903;28;20068;-64
2022/07/06 21:29:10;;;;;;;10.95;10.25;;;;;;;;;;5043609;28;20036;-64
2022/07/06 21:31:35;;;;;;;9.20;8.60;;;;;;;;;;5043251;28;20044;-64
2022/07/06 21:34:01;;;;;;;10.10;9.50;;;;;;;;;;5043889;28;20025;-64
2022/07/06 21:36:26;;;;;;;9.20;8.60;;;;;;;;;;5043140;28;20040;-64
2022/07/06 21:38:52;;;;;;;9.95;9.25;;;;;;;;;;5043984;28;20059;-64
2022/07/06 21:41:17;;;;;;;9.55;8.95;;;;;;;;;;5043595;28;20029;-64
2022/07/06 21:43:42;;;;;;;9.55;8.95;;;;;;;;;;5042421;28;20035;-63
2022/07/06 21:46:08;;;;;;;10.07;9.48;;;;;;;;;;5043794;28;20367;-64
2022/07/06 21:48:33;;;;;;;9.82;9.23;;;;;;;;;;5043391;28;20104;-63
2022/07/06 21:50:59;;;;;;;10.60;9.00;;;;;;;;;;5044211;28;20043;-63
2022/07/06 21:53:25;;;;;;;9.20;8.60;;;;;;;;;;5043097;28;20036;-64
2022/07/06 21:55:54;;;;;;;9.82;9.23;;;;;;;;;;5043099;28;20021;-64
2022/07/06 21:58:20;;;;;;;10.77;10.13;;;;;;;;;;5044037;28;20037;-64
2022/07/06 22:00:45;;;;;;;10.13;9.43;;;;;;;;;;5043408;28;20083;-64
2022/07/06 22:03:11;;;;;;;9.40;8.80;;;;;;;;;;5043613;28;20340;-63
2022/07/06 22:05:36;;;;;;;11.63;10.90;;;;;;;;;;5042643;28;20029;-63
2022/07/06 22:08:02;;;;;;;9.30;8.70;;;;;;;;;;5045447;28;20060;-63
2022/07/06 22:10:30;;;;;;;9.60;9.00;;;;;;;;;;5043702;28;20106;-63
2022/07/06 22:12:55;;;;;;;8.93;8.32;;;;;;;;;;5043663;28;20025;-64
2022/07/06 22:15:20;;;;;;;10.27;9.68;;;;;;;;;;5042104;28;20094;-63
2022/07/06 22:17:46;;;;;;;9.70;9.10;;;;;;;;;;5043282;28;20033;-63
2022/07/06 22:20:11;;;;;;;9.85;9.25;;;;;;;;;;5043845;28;20116;-64
2022/07/06 22:22:37;;;;;;;9.32;8.73;;;;;;;;;;5043161;28;20181;-63
2022/07/06 22:25:02;;;;;;;9.80;9.20;;;;;;;;;;5043776;28;20036;-63